Time;durP1;ratioP1;P1;durP2;ratioP2;P2;SDS_P1;SDS_P2;PMS_P1;PMS_P2;Temp;Humidity;BMP_temperature;BMP_pressure;BME280_temperature;BME280_humidity;BME280_pressure;Samples;Min_cycle;Max_cycle;Signal;HPM_P1;HPM_P2
2022/03/10 00:00:44;;;;;;;16.85;10.38;;;;;;;3.45;34.19;96208.88;4994456;28;20111;-64
2022/03/10 00:03:09;;;;;;;14.77;9.63;;;;;;;3.38;33.24;96211.09;4988442;28;20082;-65
2022/03/10 00:05:35;;;;;;;16.25;10.35;;;;;;;3.33;34.88;96205.38;4990688;28;20617;-64
2022/03/10 00:08:00;;;;;;;15.48;10.02;;;;;;;3.30;34.88;96217.78;4995628;28;20467;-64
2022/03/10 00:10:26;;;;;;;14.50;10.23;;;;;;;3.26;35.09;96212.88;4991927;28;20097;-64
2022/03/10 00:12:52;;;;;;;14.68;9.60;;;;;;;3.21;35.27;96209.75;5007015;28;20148;-65
2022/03/10 00:15:19;;;;;;;14.85;10.13;;;;;;;3.15;35.12;96209.28;5024950;28;20570;-65
2022/03/10 00:17:45;;;;;;;14.10;9.35;;;;;;;3.12;35.65;96208.66;5019507;28;20482;-64
2022/03/10 00:20:10;;;;;;;16.48;10.13;;;;;;;3.04;35.68;96204.81;5017862;28;20107;-65
2022/03/10 00:22:44;;;;;;;14.35;9.77;;;;;;;3.02;35.94;96206.75;5005040;28;20094;-63
2022/03/10 00:25:09;;;;;;;12.93;9.38;;;;;;;3.03;35.41;96202.31;5011862;28;20200;-65
2022/03/10 00:27:35;;;;;;;14.25;9.60;;;;;;;2.96;35.99;96199.31;5015807;28;20086;-64
2022/03/10 00:30:00;;;;;;;13.88;9.18;;;;;;;2.94;35.69;96206.47;5003593;28;20158;-65
2022/03/10 00:32:26;;;;;;;15.40;8.63;;;;;;;2.89;36.22;96205.97;4994952;28;20564;-64
2022/03/10 00:34:51;;;;;;;12.15;8.65;;;;;;;2.81;36.10;96203.94;4991522;28;20091;-64
2022/03/10 00:37:16;;;;;;;12.98;8.50;;;;;;;2.86;34.65;96204.41;5014302;28;20105;-64
2022/03/10 00:39:42;;;;;;;13.07;8.18;;;;;;;2.88;34.93;96210.41;5026929;28;20092;-64
2022/03/10 00:42:07;;;;;;;14.10;9.27;;;;;;;2.89;34.42;96204.19;5029161;28;20563;-65
2022/03/10 00:44:33;;;;;;;12.60;8.32;;;;;;;2.91;33.92;96209.34;5011298;28;20110;-64
2022/03/10 00:46:59;;;;;;;12.77;8.48;;;;;;;2.90;34.95;96211.13;4994240;28;20106;-64
2022/03/10 00:49:24;;;;;;;13.73;9.27;;;;;;;2.89;35.91;96214.72;4987459;28;20772;-64
2022/03/10 00:51:50;;;;;;;11.73;8.25;;;;;;;2.86;34.93;96212.31;4996098;28;20113;-64
2022/03/10 00:54:16;;;;;;;12.32;7.72;;;;;;;2.87;31.14;96219.25;5024597;28;20459;-65
2022/03/10 00:56:41;;;;;;;11.25;8.07;;;;;;;2.90;35.63;96215.56;5034489;28;20178;-64
2022/03/10 00:59:07;;;;;;;11.60;7.65;;;;;;;2.85;35.53;96215.03;5044315;28;20596;-64
2022/03/10 01:01:32;;;;;;;13.18;7.80;;;;;;;2.85;35.28;96215.91;5007163;28;20110;-64
2022/03/10 01:03:57;;;;;;;12.57;8.32;;;;;;;2.90;35.84;96219.00;4991317;28;20176;-64
2022/03/10 01:06:23;;;;;;;11.20;7.97;;;;;;;2.85;35.77;96223.78;5003992;28;20085;-64
2022/03/10 01:08:48;;;;;;;15.73;8.63;;;;;;;2.87;35.72;96227.16;4995234;28;20109;-64
2022/03/10 01:11:13;;;;;;;12.48;8.10;;;;;;;2.82;35.69;96218.75;5004243;28;20451;-65
2022/03/10 01:13:39;;;;;;;13.30;8.30;;;;;;;2.85;35.93;96218.53;5003691;28;20111;-65
2022/03/10 01:16:04;;;;;;;14.13;7.80;;;;;;;2.78;34.89;96219.94;5003817;28;20094;-64
2022/03/10 01:18:30;;;;;;;12.75;8.60;;;;;;;2.77;36.29;96219.13;5004201;28;20082;-64
2022/03/10 01:20:55;;;;;;;11.70;7.53;;;;;;;2.74;36.48;96227.22;5003238;28;20302;-64
2022/03/10 01:23:20;;;;;;;12.52;8.07;;;;;;;2.69;36.16;96226.69;5003932;28;20113;-64
2022/03/10 01:25:46;;;;;;;13.07;8.50;;;;;;;2.70;36.24;96217.03;5002019;28;20307;-64
2022/03/10 01:28:12;;;;;;;12.45;7.93;;;;;;;2.63;37.00;96225.38;4987391;28;20102;-65
2022/03/10 01:30:37;;;;;;;11.32;7.75;;;;;;;2.58;36.68;96224.88;4991219;28;20529;-64
2022/03/10 01:33:02;;;;;;;13.27;8.45;;;;;;;2.56;36.97;96228.56;4997066;28;20106;-64
2022/03/10 01:35:28;;;;;;;13.10;7.93;;;;;;;2.47;36.64;96238.81;4995478;28;20073;-64
2022/03/10 01:37:53;;;;;;;15.35;8.20;;;;;;;2.46;37.42;96231.88;4987137;28;20106;-65
2022/03/10 01:40:19;;;;;;;11.43;7.82;;;;;;;2.32;36.61;96225.00;4992318;28;20209;-65
2022/03/10 01:42:44;;;;;;;12.10;8.18;;;;;;;2.33;37.23;96226.69;5001185;28;20098;-65
2022/03/10 01:45:10;;;;;;;13.82;7.70;;;;;;;2.25;37.31;96223.75;4986395;28;20156;-65
2022/03/10 01:47:36;;;;;;;13.05;8.05;;;;;;;2.23;37.80;96229.13;5001623;28;20112;-64
2022/03/10 01:50:01;;;;;;;11.20;7.68;;;;;;;2.15;37.60;96223.59;5003426;28;20359;-63
2022/03/10 01:52:27;;;;;;;11.90;7.78;;;;;;;2.13;37.44;96228.94;5002886;28;20109;-62
2022/03/10 01:54:52;;;;;;;10.75;7.15;;;;;;;2.08;37.67;96228.41;5003266;28;20471;-62
2022/03/10 01:57:18;;;;;;;11.00;7.43;;;;;;;2.05;37.70;96228.66;4993974;28;20102;-65
2022/03/10 01:59:43;;;;;;;11.35;7.55;;;;;;;2.03;38.27;96227.91;5001332;28;20086;-65
2022/03/10 02:02:09;;;;;;;12.73;7.55;;;;;;;2.02;37.89;96228.88;4998400;28;20634;-64
2022/03/10 02:04:34;;;;;;;10.65;7.40;;;;;;;1.99;38.01;96222.06;4997217;28;20425;-65
2022/03/10 02:07:01;;;;;;;11.63;7.40;;;;;;;1.97;38.26;96215.22;4995860;28;20096;-65
2022/03/10 02:12:10;;;;;;;13.23;6.97;;;;;;;1.94;38.35;96220.69;4994252;28;20113;-64
2022/03/10 02:17:20;;;;;;;9.93;7.00;;;;;;;1.84;38.12;96223.97;4998674;28;20145;-64
2022/03/10 02:19:53;;;;;;;10.43;6.88;;;;;;;1.81;35.86;96216.28;5005840;28;20074;-64
2022/03/10 02:22:20;;;;;;;13.13;6.88;;;;;;;1.78;38.05;96221.78;5020576;28;20181;-64
2022/03/10 02:24:45;;;;;;;10.27;6.78;;;;;;;1.77;38.78;96220.09;5016102;28;20606;-64
2022/03/10 02:27:24;;;;;;;11.55;7.13;;;;;;;1.73;38.22;96218.63;4986614;28;20083;-64
2022/03/10 02:29:52;;;;;;;11.48;7.18;;;;;;;1.63;38.06;96215.81;5029658;28;20101;-64
2022/03/10 02:32:18;;;;;;;9.40;6.95;;;;;;;1.59;38.21;96222.22;5023232;28;20470;-64
2022/03/10 02:34:43;;;;;;;12.50;7.25;;;;;;;1.55;38.54;96216.34;5020716;28;20100;-64
2022/03/10 02:37:09;;;;;;;10.95;7.20;;;;;;;1.43;38.38;96218.00;5026982;28;20102;-65
2022/03/10 02:39:35;;;;;;;10.70;7.30;;;;;;;1.44;39.37;96222.31;5017330;28;20375;-64
2022/03/10 02:42:00;;;;;;;11.13;7.63;;;;;;;1.45;39.83;96225.75;5009517;28;20094;-65
2022/03/10 02:44:26;;;;;;;11.48;7.15;;;;;;;1.41;38.84;96224.28;5012078;28;20185;-64
2022/03/10 02:46:51;;;;;;;13.23;6.78;;;;;;;1.39;39.59;96221.78;5017039;28;20092;-65
2022/03/10 02:49:17;;;;;;;11.02;6.53;;;;;;;1.37;39.26;96224.50;5033874;28;20113;-64
2022/03/10 02:51:43;;;;;;;14.15;7.03;;;;;;;1.40;39.72;96218.19;5037727;28;20706;-65
2022/03/10 02:54:08;;;;;;;11.20;6.78;;;;;;;1.40;39.52;96225.25;5014556;28;20113;-64
2022/03/10 02:56:34;;;;;;;10.90;6.55;;;;;;;1.36;39.54;96217.59;5015081;28;20201;-64
2022/03/10 02:58:59;;;;;;;12.30;6.82;;;;;;;1.34;40.02;96218.63;5015494;28;20073;-64
2022/03/10 03:01:25;;;;;;;11.48;6.90;;;;;;;1.35;39.60;96218.53;5022099;28;20410;-64
2022/03/10 03:03:50;;;;;;;10.25;6.95;;;;;;;1.28;40.07;96213.78;5011710;28;20119;-64
2022/03/10 03:06:15;;;;;;;11.73;6.55;;;;;;;1.21;39.67;96214.22;5015586;28;20274;-64
2022/03/10 03:08:41;;;;;;;9.85;6.45;;;;;;;1.25;40.37;96225.34;5012234;28;20105;-64
2022/03/10 03:11:06;;;;;;;9.98;6.45;;;;;;;1.25;38.81;96220.09;5003286;28;20164;-64
2022/03/10 03:13:32;;;;;;;10.23;6.60;;;;;;;1.23;39.61;96222.00;5014892;28;20106;-65
2022/03/10 03:15:58;;;;;;;10.23;6.53;;;;;;;1.25;39.89;96217.47;5035298;28;20243;-65
2022/03/10 03:18:24;;;;;;;10.20;6.90;;;;;;;1.26;39.68;96226.19;5032545;28;20082;-64
2022/03/10 03:20:49;;;;;;;9.85;6.28;;;;;;;1.22;40.21;96226.41;5006073;28;20110;-64
2022/03/10 03:23:14;;;;;;;10.10;6.38;;;;;;;1.19;40.10;96215.28;5030069;28;20597;-64
2022/03/10 03:25:40;;;;;;;10.23;6.50;;;;;;;1.23;40.25;96224.63;5007549;28;20126;-64
2022/03/10 03:28:05;;;;;;;9.32;6.18;;;;;;;1.20;39.76;96224.81;5008103;28;20102;-64
2022/03/10 03:30:31;;;;;;;9.13;6.38;;;;;;;1.18;40.36;96226.69;5005833;28;20082;-64
2022/03/10 03:32:56;;;;;;;9.80;6.40;;;;;;;1.04;40.96;96225.84;5016105;28;20105;-64
2022/03/10 03:35:21;;;;;;;11.48;6.63;;;;;;;1.12;39.81;96225.31;5019949;28;20475;-64
2022/03/10 03:37:47;;;;;;;11.93;7.05;;;;;;;1.05;40.01;96219.66;5005736;28;20129;-65
2022/03/10 03:40:12;;;;;;;10.75;6.75;;;;;;;1.05;40.50;96222.28;5035618;28;20377;-64
2022/03/10 03:42:38;;;;;;;12.02;6.70;;;;;;;1.05;39.62;96219.66;5011050;28;20082;-64
2022/03/10 03:45:04;;;;;;;10.00;6.65;;;;;;;1.06;39.09;96221.34;5019496;28;20160;-64
2022/03/10 03:47:30;;;;;;;10.32;6.43;;;;;;;1.13;40.27;96218.31;5011824;28;20436;-64
2022/03/10 03:49:55;;;;;;;9.70;6.78;;;;;;;1.06;37.80;96218.72;5027967;28;20078;-64
2022/03/10 03:52:20;;;;;;;10.88;6.72;;;;;;;1.04;40.66;96223.25;5011512;28;20109;-65
2022/03/10 03:54:46;;;;;;;12.48;6.70;;;;;;;1.09;39.42;96215.88;5033247;28;20086;-64
2022/03/10 03:57:11;;;;;;;10.32;6.20;;;;;;;1.11;36.87;96221.88;5013788;28;20108;-65
2022/03/10 03:59:37;;;;;;;9.63;6.20;;;;;;;1.19;38.44;96215.28;5016806;28;20078;-65
2022/03/10 04:02:03;;;;;;;12.32;6.65;;;;;;;1.10;37.25;96222.00;5006489;28;20094;-65
2022/03/10 04:04:29;;;;;;;10.43;6.38;;;;;;;1.22;39.35;96220.31;5011647;28;20188;-65
2022/03/10 04:06:54;;;;;;;8.40;5.70;;;;;;;1.30;38.38;96222.41;5024988;28;20109;-65
2022/03/10 04:09:20;;;;;;;9.32;5.82;;;;;;;1.24;40.35;96216.66;5024059;28;20109;-62
2022/03/10 04:11:45;;;;;;;10.23;6.60;;;;;;;1.29;38.60;96218.13;5011031;28;20124;-65
2022/03/10 04:14:11;;;;;;;10.38;6.10;;;;;;;1.37;38.63;96219.25;5016420;28;20212;-64
2022/03/10 04:16:37;;;;;;;9.27;5.82;;;;;;;1.43;38.29;96222.41;5025633;28;20505;-65
2022/03/10 04:19:02;;;;;;;11.65;6.38;;;;;;;1.41;36.22;96219.91;5007946;28;20109;-65
2022/03/10 04:21:28;;;;;;;9.00;5.60;;;;;;;1.50;37.33;96213.19;5018955;28;20570;-65
2022/03/10 04:23:53;;;;;;;9.73;6.20;;;;;;;1.39;35.38;96211.28;5012977;28;20129;-65
2022/03/10 04:26:18;;;;;;;9.10;6.30;;;;;;;1.39;37.80;96213.09;5025035;28;20125;-65
2022/03/10 04:28:44;;;;;;;11.73;6.00;;;;;;;1.60;39.26;96213.41;5017430;28;20106;-65
2022/03/10 04:31:09;;;;;;;10.25;6.40;;;;;;;1.38;38.01;96209.59;5020737;28;20490;-64
2022/03/10 04:33:37;;;;;;;10.75;6.63;;;;;;;1.30;36.60;96212.75;5020666;28;20116;-64
2022/03/10 04:36:02;;;;;;;9.90;6.13;;;;;;;1.46;35.86;96216.94;5008988;28;20102;-64
2022/03/10 04:38:28;;;;;;;10.88;6.18;;;;;;;1.46;37.99;96223.03;4996198;28;20482;-64
2022/03/10 04:40:53;;;;;;;10.48;5.70;;;;;;;1.52;39.45;96226.16;4990291;28;20912;-65
2022/03/10 04:43:19;;;;;;;10.48;6.75;;;;;;;1.22;34.48;96225.53;4995708;28;20214;-65
2022/03/10 04:45:44;;;;;;;10.13;5.93;;;;;;;1.20;36.19;96230.06;4991353;28;20107;-65
2022/03/10 04:48:10;;;;;;;11.50;6.88;;;;;;;1.11;36.59;96232.38;4990368;28;20430;-65
2022/03/10 04:50:35;;;;;;;9.77;5.95;;;;;;;1.42;38.96;96229.44;5017035;28;20527;-65
2022/03/10 04:53:01;;;;;;;12.60;5.70;;;;;;;1.54;38.58;96235.69;5008204;28;20090;-65
2022/03/10 04:55:26;;;;;;;11.65;5.90;;;;;;;1.50;39.13;96235.00;5015475;28;20067;-64
2022/03/10 04:57:51;;;;;;;9.35;6.10;;;;;;;1.51;39.30;96241.09;5004679;28;20213;-65
2022/03/10 05:00:19;;;;;;;9.52;5.82;;;;;;;1.53;38.83;96241.00;5009249;28;20514;-64
2022/03/10 05:02:44;;;;;;;9.32;6.30;;;;;;;1.42;38.89;96239.94;5021750;28;20104;-65
2022/03/10 05:05:12;;;;;;;12.90;6.43;;;;;;;1.39;38.36;96240.13;5009232;28;20118;-65
2022/03/10 05:07:37;;;;;;;9.82;6.25;;;;;;;1.39;37.46;96245.38;5016069;28;20303;-64
2022/03/10 05:10:04;;;;;;;10.10;6.55;;;;;;;1.44;39.12;96243.31;5013840;28;20081;-64
2022/03/10 05:12:29;;;;;;;10.27;6.05;;;;;;;1.51;38.95;96248.97;5023462;28;20644;-64
2022/03/10 05:14:55;;;;;;;10.38;6.25;;;;;;;1.48;39.46;96243.94;5021874;28;20085;-64
2022/03/10 05:17:23;;;;;;;10.10;6.00;;;;;;;1.47;38.24;96239.63;5022116;28;20121;-64
2022/03/10 05:19:49;;;;;;;13.93;6.47;;;;;;;1.43;37.43;96238.16;5015960;28;20145;-64
2022/03/10 05:22:14;;;;;;;9.93;6.20;;;;;;;1.50;38.09;96240.25;5021702;28;20550;-64
2022/03/10 05:24:39;;;;;;;9.73;5.72;;;;;;;1.50;38.09;96239.44;5009496;28;20122;-64
2022/03/10 05:27:05;;;;;;;9.45;5.90;;;;;;;1.49;36.01;96240.34;5007333;28;20129;-64
2022/03/10 05:29:30;;;;;;;9.48;6.10;;;;;;;1.54;36.38;96246.19;5007169;28;20176;-64
2022/03/10 05:31:56;;;;;;;10.07;6.00;;;;;;;1.57;39.09;96243.31;5006314;28;20113;-64
2022/03/10 05:34:21;;;;;;;9.75;5.93;;;;;;;1.51;38.06;96246.34;5018250;28;20104;-65
2022/03/10 05:36:46;;;;;;;10.20;5.82;;;;;;;1.54;37.89;96247.94;5009895;28;20107;-65
2022/03/10 05:39:12;;;;;;;9.48;6.10;;;;;;;1.60;37.16;96245.72;5009779;28;20082;-64
2022/03/10 05:41:37;;;;;;;8.82;5.90;;;;;;;1.56;38.29;96254.78;5009105;28;20586;-65
2022/03/10 05:44:03;;;;;;;10.38;6.30;;;;;;;1.53;38.76;96251.50;5011787;28;20409;-65
2022/03/10 05:46:28;;;;;;;10.02;6.13;;;;;;;1.57;38.25;96255.63;5013355;28;20147;-65
2022/03/10 05:48:54;;;;;;;9.70;5.68;;;;;;;1.60;38.80;96266.72;5013971;28;20474;-65
2022/03/10 05:51:19;;;;;;;10.90;6.10;;;;;;;1.51;39.08;96262.09;5019013;28;20077;-65
2022/03/10 05:53:45;;;;;;;9.30;6.05;;;;;;;1.55;38.41;96260.13;5021251;28;20120;-65
2022/03/10 05:56:10;;;;;;;10.85;5.85;;;;;;;1.48;39.07;96262.31;5014007;28;20136;-65
2022/03/10 05:58:35;;;;;;;10.93;6.78;;;;;;;1.35;39.02;96273.63;5022129;28;20082;-66
2022/03/10 06:01:01;;;;;;;9.60;5.72;;;;;;;1.41;39.08;96276.78;5015137;28;20398;-65
2022/03/10 06:03:26;;;;;;;9.32;5.28;;;;;;;1.44;39.10;96276.56;5019859;28;20591;-65
2022/03/10 06:05:52;;;;;;;11.35;6.07;;;;;;;1.44;39.55;96277.44;5006824;28;20078;-65
2022/03/10 06:08:17;;;;;;;10.90;5.53;;;;;;;1.49;39.33;96279.72;5018005;28;20346;-65
2022/03/10 06:10:42;;;;;;;10.63;6.10;;;;;;;1.50;39.18;96284.03;5014291;28;20127;-65
2022/03/10 06:13:08;;;;;;;13.32;7.20;;;;;;;1.52;37.62;96284.75;5019325;28;20231;-65
2022/03/10 06:15:33;;;;;;;12.48;7.05;;;;;;;1.51;39.16;96283.09;5008004;28;20131;-65
2022/03/10 06:17:59;;;;;;;11.13;6.45;;;;;;;1.58;38.88;96279.13;5015511;28;20614;-65
2022/03/10 06:20:25;;;;;;;11.13;6.13;;;;;;;1.67;38.44;96282.91;5002650;28;20109;-65
2022/03/10 06:22:50;;;;;;;12.57;6.40;;;;;;;1.71;38.57;96284.34;5017353;28;20120;-65
2022/03/10 06:25:16;;;;;;;10.73;6.10;;;;;;;1.75;38.44;96285.00;5002239;28;20476;-65
2022/03/10 06:27:41;;;;;;;12.88;7.45;;;;;;;1.81;38.07;96286.38;5013340;28;20578;-65
2022/03/10 06:30:07;;;;;;;10.50;6.13;;;;;;;1.90;37.80;96282.28;5005392;28;20140;-65
2022/03/10 06:32:33;;;;;;;9.68;6.28;;;;;;;1.96;38.26;96284.44;5010525;28;20110;-65
2022/03/10 06:34:59;;;;;;;9.77;6.55;;;;;;;2.04;34.23;96284.75;5008383;28;20776;-65
2022/03/10 06:37:25;;;;;;;12.90;6.88;;;;;;;2.11;37.70;96280.75;5008029;28;20101;-65
2022/03/10 06:39:50;;;;;;;10.13;6.15;;;;;;;2.08;36.20;96286.22;5006029;28;20611;-65
2022/03/10 06:42:16;;;;;;;11.57;6.10;;;;;;;2.17;35.73;96283.91;5011865;28;20274;-65
2022/03/10 06:44:41;;;;;;;11.10;6.28;;;;;;;2.29;35.77;96279.56;5012595;28;20355;-65
2022/03/10 06:47:09;;;;;;;12.55;6.78;;;;;;;2.36;36.19;96279.03;5012741;28;20077;-65
2022/03/10 06:49:34;;;;;;;12.25;6.35;;;;;;;2.37;33.42;96279.84;5005694;28;20106;-66
2022/03/10 06:52:00;;;;;;;13.30;6.35;;;;;;;2.46;33.92;96278.34;5019850;28;20637;-66
2022/03/10 06:54:25;;;;;;;10.50;6.15;;;;;;;2.74;33.75;96281.59;5013863;28;20136;-65
2022/03/10 06:56:51;;;;;;;10.90;5.82;;;;;;;2.97;34.15;96284.31;5011543;28;20098;-66
2022/03/10 06:59:16;;;;;;;10.32;5.85;;;;;;;3.10;33.08;96285.09;5013211;28;20165;-66
2022/03/10 07:01:42;;;;;;;10.20;6.10;;;;;;;3.25;33.07;96280.47;5018981;28;20112;-66
2022/03/10 07:04:07;;;;;;;9.50;5.43;;;;;;;3.36;30.74;96282.28;5021167;28;20109;-66
2022/03/10 07:06:32;;;;;;;8.98;5.30;;;;;;;3.53;33.04;96283.69;5014781;28;20506;-66
2022/03/10 07:08:58;;;;;;;10.88;5.90;;;;;;;3.62;33.25;96283.94;5020847;28;20106;-66
2022/03/10 07:11:25;;;;;;;9.25;5.05;;;;;;;3.95;32.12;96287.56;5019437;28;20492;-66
2022/03/10 07:13:50;;;;;;;10.32;6.47;;;;;;;4.07;29.40;96293.66;5007504;28;20140;-65
2022/03/10 07:16:16;;;;;;;10.25;5.78;;;;;;;4.10;29.60;96292.56;5014851;28;20110;-66
2022/03/10 07:18:41;;;;;;;8.50;5.85;;;;;;;4.24;30.81;96288.84;5016239;28;20088;-67
2022/03/10 07:21:07;;;;;;;8.75;5.78;;;;;;;4.32;31.96;96289.09;5019041;28;20502;-66
2022/03/10 07:23:32;;;;;;;12.88;7.90;;;;;;;4.64;29.47;96287.47;5019094;28;20543;-66
2022/03/10 07:25:58;;;;;;;13.35;8.25;;;;;;;4.82;30.69;96287.75;5006136;28;20151;-66
2022/03/10 07:28:23;;;;;;;13.77;9.85;;;;;;;4.92;29.64;96291.34;5005910;28;20111;-67
2022/03/10 07:30:49;;;;;;;13.82;8.57;;;;;;;5.05;29.28;96287.69;5016243;28;20168;-66
2022/03/10 07:33:14;;;;;;;12.68;8.73;;;;;;;5.25;28.53;96287.84;5012763;28;20130;-66
2022/03/10 07:35:40;;;;;;;13.38;8.98;;;;;;;5.41;27.17;96290.88;5007434;28;20081;-66
2022/03/10 07:38:05;;;;;;;13.32;8.25;;;;;;;5.60;27.77;96289.34;5012318;28;20081;-67
2022/03/10 07:40:31;;;;;;;13.00;8.40;;;;;;;5.65;28.45;96291.59;5012379;28;20520;-66
2022/03/10 07:42:56;;;;;;;14.00;9.38;;;;;;;5.72;28.17;96290.94;5015890;28;20144;-66
2022/03/10 07:45:22;;;;;;;11.05;7.97;;;;;;;5.71;28.94;96288.41;5013192;28;20121;-66
2022/03/10 07:47:47;;;;;;;14.13;8.68;;;;;;;5.85;28.92;96296.00;5019675;28;20115;-66
2022/03/10 07:50:13;;;;;;;13.32;9.05;;;;;;;6.03;27.99;96297.22;5013453;28;20580;-66
2022/03/10 07:52:39;;;;;;;12.30;8.45;;;;;;;6.10;26.57;96298.34;5006126;28;20608;-67
2022/03/10 07:55:05;;;;;;;12.90;9.30;;;;;;;6.38;28.95;96293.31;5005273;28;20136;-66
2022/03/10 07:57:31;;;;;;;13.05;9.77;;;;;;;6.47;25.67;96295.13;5006256;28;20120;-67
2022/03/10 07:59:56;;;;;;;14.60;10.20;;;;;;;6.66;28.22;96290.06;5001842;28;20111;-67
2022/03/10 08:02:22;;;;;;;15.50;10.40;;;;;;;6.74;25.42;96293.69;4996016;28;20124;-67
2022/03/10 08:04:48;;;;;;;15.55;10.65;;;;;;;6.90;27.09;96284.38;4994486;28;20318;-67
2022/03/10 08:07:13;;;;;;;18.25;11.35;;;;;;;7.06;28.06;96291.75;4991638;28;20486;-67
2022/03/10 08:09:38;;;;;;;15.98;10.52;;;;;;;7.03;25.98;96289.38;5015196;28;20478;-67
2022/03/10 08:12:05;;;;;;;16.02;11.63;;;;;;;7.25;26.87;96296.22;5013687;28;20112;-67
2022/03/10 08:14:30;;;;;;;16.30;11.43;;;;;;;7.44;26.91;96289.22;5040960;28;20080;-66
2022/03/10 08:16:55;;;;;;;18.80;13.10;;;;;;;7.58;27.73;96289.78;5020962;28;20524;-67
2022/03/10 08:19:21;;;;;;;19.73;11.43;;;;;;;7.63;25.74;96292.84;5022879;28;20115;-67
2022/03/10 08:21:47;;;;;;;17.70;13.35;;;;;;;7.65;27.45;96293.53;5031568;28;20499;-67
2022/03/10 08:24:13;;;;;;;20.50;14.75;;;;;;;8.04;27.36;96295.25;5009282;28;20650;-67
2022/03/10 08:26:39;;;;;;;18.88;13.32;;;;;;;8.15;24.40;96294.22;5012321;28;20082;-67
2022/03/10 08:29:04;;;;;;;21.60;14.63;;;;;;;8.42;24.89;96301.38;5003160;28;20113;-67
2022/03/10 08:31:30;;;;;;;19.13;13.60;;;;;;;8.37;24.77;96293.00;5018134;28;20082;-68
2022/03/10 08:33:55;;;;;;;20.73;15.65;;;;;;;8.50;26.04;96297.16;5008737;28;20454;-69
2022/03/10 08:36:21;;;;;;;21.88;16.00;;;;;;;8.74;25.82;96295.75;5012511;28;20136;-69
2022/03/10 08:38:46;;;;;;;24.13;14.45;;;;;;;8.84;23.96;96295.69;5017197;28;20094;-68
2022/03/10 08:41:12;;;;;;;26.42;18.40;;;;;;;9.16;23.70;96294.38;5025987;28;21711;-68
2022/03/10 08:43:37;;;;;;;21.13;14.88;;;;;;;9.14;24.68;96285.69;5011786;28;20081;-66
2022/03/10 08:46:03;;;;;;;25.67;19.05;;;;;;;9.13;23.40;96290.19;5009648;28;20079;-66
2022/03/10 08:48:31;;;;;;;30.60;21.02;;;;;;;9.28;23.58;96290.47;5013258;28;20200;-68
2022/03/10 08:50:57;;;;;;;;;;;;;;;9.46;22.18;96300.28;4998067;28;20409;-65
2022/03/10 08:53:22;;;;;;;27.98;19.48;;;;;;;9.23;24.44;96291.94;4994019;28;20023;-66
2022/03/10 08:55:48;;;;;;;30.25;22.17;;;;;;;9.57;24.18;96300.03;4992602;28;20124;-66
2022/03/10 08:58:13;;;;;;;34.50;23.83;;;;;;;9.63;24.75;96295.06;4990867;28;20596;-67
2022/03/10 09:00:40;;;;;;;44.38;34.45;;;;;;;9.70;25.86;96293.47;5004390;28;20101;-66
2022/03/10 09:03:06;;;;;;;36.50;26.60;;;;;;;9.73;25.50;96290.50;5001021;28;20087;-66
2022/03/10 09:05:34;;;;;;;47.72;36.63;;;;;;;10.05;25.54;96294.38;4986081;28;20488;-66
2022/03/10 09:07:59;;;;;;;42.17;30.45;;;;;;;10.12;24.52;96283.06;4988736;28;20393;-67
2022/03/10 09:10:25;;;;;;;48.42;36.65;;;;;;;10.52;24.40;96281.59;4991460;28;20085;-66
2022/03/10 09:12:51;;;;;;;43.58;31.35;;;;;;;10.56;24.51;96282.94;4989356;28;20128;-66
2022/03/10 09:15:17;;;;;;;37.90;27.25;;;;;;;10.70;24.05;96277.97;4996751;28;20458;-66
2022/03/10 09:17:42;;;;;;;23.23;17.40;;;;;;;10.54;21.79;96278.78;4998413;28;20619;-66
2022/03/10 09:20:08;;;;;;;33.42;24.00;;;;;;;10.80;23.50;96267.16;4995515;28;20137;-66
2022/03/10 09:22:34;;;;;;;31.02;22.60;;;;;;;10.99;23.07;96258.88;5002169;28;20633;-66
2022/03/10 09:25:02;;;;;;;31.02;20.75;;;;;;;10.87;23.26;96254.88;5006333;28;20121;-64
2022/03/10 09:27:27;;;;;;;;;;;;;;;11.35;22.92;96257.75;5019433;28;20089;-67
2022/03/10 09:29:53;;;;;;;29.45;19.55;;;;;;;11.22;22.64;96255.59;5029952;28;20015;-66
2022/03/10 09:32:18;;;;;;;21.50;14.75;;;;;;;11.37;22.05;96249.59;5032914;28;20096;-66
2022/03/10 09:34:44;;;;;;;17.58;12.18;;;;;;;11.75;21.84;96249.03;5032535;28;20113;-66
2022/03/10 09:37:11;;;;;;;14.32;9.00;;;;;;;11.91;20.87;96250.84;5034412;28;20455;-66
2022/03/10 09:39:36;;;;;;;24.67;17.30;;;;;;;11.75;21.44;96255.22;5015159;28;20087;-66
2022/03/10 09:42:04;;;;;;;19.52;12.57;;;;;;;11.83;19.84;96246.34;4993903;28;20141;-66
2022/03/10 09:44:30;;;;;;;;;;;;;;;11.77;21.18;96249.72;5003497;28;20729;-66
2022/03/10 09:47:02;;;;;;;14.33;11.37;;;;;;;12.11;19.93;96251.31;5006439;28;20170;-66
2022/03/10 09:49:27;;;;;;;17.20;13.25;;;;;;;12.24;21.09;96248.09;4988493;28;20111;-66
2022/03/10 09:51:53;;;;;;;13.13;9.73;;;;;;;11.94;20.08;96257.69;5005202;28;20554;-66
2022/03/10 09:54:18;;;;;;;14.13;10.80;;;;;;;12.08;20.89;96257.00;5004365;28;20426;-66
2022/03/10 09:56:44;;;;;;;21.75;13.75;;;;;;;12.08;21.28;96259.69;5017119;28;20508;-66
2022/03/10 09:59:10;;;;;;;14.70;10.93;;;;;;;12.85;17.47;96257.28;5011168;28;20091;-66
2022/03/10 10:01:35;;;;;;;11.55;8.32;;;;;;;13.29;16.77;96257.69;5017547;28;20522;-66
2022/03/10 10:04:01;;;;;;;6.38;4.78;;;;;;;13.12;16.91;96268.50;5006986;28;20562;-66
2022/03/10 10:06:26;;;;;;;10.43;8.25;;;;;;;13.13;17.18;96258.66;5012923;28;20558;-66
2022/03/10 10:08:55;;;;;;;8.15;5.82;;;;;;;12.60;17.85;96260.13;5012238;28;20106;-67
2022/03/10 10:11:32;;;;;;;11.63;9.00;;;;;;;12.44;19.38;96269.03;5005485;28;20065;-67
2022/03/10 10:13:58;;;;;;;10.52;6.13;;;;;;;12.77;16.88;96262.69;5018051;28;20523;-67
2022/03/10 10:16:23;;;;;;;9.48;6.88;;;;;;;12.80;17.87;96265.00;5013500;28;20104;-67
2022/03/10 10:18:54;;;;;;;9.52;6.80;;;;;;;13.10;16.70;96267.88;5012693;28;20083;-67
2022/03/10 10:21:20;;;;;;;8.35;5.38;;;;;;;13.08;16.98;96274.41;5000218;28;20603;-67
2022/03/10 10:23:45;;;;;;;10.20;5.60;;;;;;;13.41;16.61;96268.78;4993744;28;20428;-67
2022/03/10 10:26:12;;;;;;;12.45;8.80;;;;;;;13.26;16.79;96274.09;4991088;28;20118;-67
2022/03/10 10:28:41;;;;;;;9.15;5.57;;;;;;;13.49;16.58;96282.09;5010070;28;20101;-67
2022/03/10 10:31:11;;;;;;;8.20;5.97;;;;;;;13.41;16.70;96271.47;5013661;28;20065;-67
2022/03/10 10:33:39;;;;;;;8.43;4.90;;;;;;;13.43;15.88;96269.47;5026355;28;20111;-69
2022/03/10 10:36:31;;;;;;;9.30;5.63;;;;;;;13.53;16.53;96274.56;5018247;28;20582;-69
2022/03/10 10:38:57;;;;;;;9.10;5.90;;;;;;;13.76;16.28;96274.50;5015546;28;20172;-69
2022/03/10 10:41:24;;;;;;;11.60;6.47;;;;;;;13.75;16.27;96272.00;5015651;28;20095;-69
2022/03/10 10:43:54;;;;;;;9.27;5.70;;;;;;;14.17;15.86;96280.44;5007581;28;20093;-69
2022/03/10 10:46:21;;;;;;;17.70;12.70;;;;;;;13.38;17.26;96283.34;4993279;28;20578;-69
2022/03/10 10:48:50;;;;;;;16.50;12.93;;;;;;;13.24;17.01;96286.81;4982625;28;20604;-68
2022/03/10 10:51:25;;;;;;;14.90;10.27;;;;;;;13.54;16.36;96286.91;4994197;28;20581;-68
2022/03/10 10:53:51;;;;;;;21.83;15.73;;;;;;;13.50;17.31;96280.25;4989476;28;20091;-68
2022/03/10 10:56:16;;;;;;;22.67;14.02;;;;;;;13.78;16.58;96271.63;4993909;28;20125;-69
2022/03/10 10:58:45;;;;;;;20.83;15.48;;;;;;;12.82;17.41;96273.69;4995522;28;20517;-68
2022/03/10 11:01:10;;;;;;;19.85;12.55;;;;;;;13.33;18.15;96272.38;4990713;28;20097;-66
2022/03/10 11:03:37;;;;;;;12.55;10.07;;;;;;;13.73;16.88;96268.69;4971208;28;20600;-66
2022/03/10 11:06:02;;;;;;;17.65;13.48;;;;;;;13.47;18.28;96267.25;4983992;28;20067;-65
2022/03/10 11:08:30;;;;;;;11.50;8.32;;;;;;;13.93;16.81;96271.66;4994994;28;20571;-66
2022/03/10 11:10:56;;;;;;;12.05;8.60;;;;;;;13.87;16.51;96261.69;4994076;28;20179;-66
2022/03/10 11:13:22;;;;;;;16.35;11.82;;;;;;;14.06;16.97;96268.38;4989347;28;20605;-67
2022/03/10 11:15:47;;;;;;;12.27;8.80;;;;;;;14.34;15.82;96265.03;4997659;28;20527;-66
2022/03/10 11:18:13;;;;;;;17.00;12.25;;;;;;;14.23;16.14;96262.81;5013741;28;20086;-66
2022/03/10 11:20:42;;;;;;;16.75;12.32;;;;;;;14.42;16.50;96259.56;5014506;28;20091;-66
2022/03/10 11:23:39;;;;;;;8.88;5.95;;;;;;;14.50;17.01;96264.00;5039866;28;20105;-66
2022/03/10 11:26:33;;;;;;;21.63;17.30;;;;;;;14.38;16.40;96254.78;5004383;28;20819;-67
2022/03/10 11:28:59;;;;;;;15.38;11.60;;;;;;;14.68;16.94;96257.38;5003762;28;20088;-66
2022/03/10 11:31:25;;;;;;;9.52;6.60;;;;;;;14.78;15.63;96247.25;4987624;28;20633;-66